createdAt,value
2023-01-11T00:01:00.910Z,43.40
2023-01-11T00:03:30.020Z,43.38
2023-01-11T00:05:57.877Z,43.20
2023-01-11T00:08:25.841Z,43.08
2023-01-11T00:10:53.283Z,42.93
2023-01-11T00:13:19.899Z,42.96
2023-01-11T00:15:46.522Z,43.03
2023-01-11T00:18:13.189Z,42.95
2023-01-11T00:20:40.803Z,42.83
2023-01-11T00:23:08.115Z,42.57
2023-01-11T00:25:35.475Z,42.82
2023-01-11T00:28:02.066Z,42.39
2023-01-11T00:30:28.661Z,42.40
2023-01-11T00:32:59.359Z,42.41
2023-01-11T00:35:27.010Z,42.67
2023-01-11T00:37:54.491Z,42.54
2023-01-11T00:40:21.754Z,42.50
2023-01-11T00:43:06.742Z,42.33
2023-01-11T00:45:52.162Z,42.43
2023-01-11T00:48:18.811Z,42.01
2023-01-11T00:50:45.352Z,42.06
2023-01-11T00:53:11.974Z,42.37
2023-01-11T00:55:38.660Z,42.23
2023-01-11T00:58:05.534Z,42.59
2023-01-11T01:00:32.533Z,42.21
2023-01-11T01:02:59.214Z,42.29
2023-01-11T01:05:25.898Z,42.13
2023-01-11T01:07:52.924Z,42.29
2023-01-11T01:10:29.405Z,41.88
2023-01-11T01:13:14.334Z,41.89
2023-01-11T01:15:41.067Z,42.24
2023-01-11T01:18:09.252Z,41.71
2023-01-11T01:20:35.924Z,42.36
2023-01-11T01:23:02.452Z,41.69
2023-01-11T01:25:29.384Z,42.23
2023-01-11T01:27:56.026Z,41.65
2023-01-11T01:30:22.662Z,41.86
2023-01-11T01:32:49.810Z,41.67
2023-01-11T01:35:16.441Z,41.55
2023-01-11T01:37:44.867Z,41.88
2023-01-11T01:40:12.116Z,41.82
2023-01-11T01:42:38.764Z,41.69
2023-01-11T01:45:24.521Z,41.38
2023-01-11T01:48:00.330Z,41.46
2023-01-11T01:50:32.059Z,41.59
2023-01-11T01:53:10.307Z,41.27
2023-01-11T01:55:40.608Z,41.36
2023-01-11T01:58:10.596Z,41.52
2023-01-11T02:00:41.365Z,41.60
2023-01-11T02:03:09.415Z,41.23
2023-01-11T02:05:36.020Z,41.39
2023-01-11T02:08:05.440Z,41.25
2023-01-11T02:10:32.625Z,41.18
2023-01-11T02:13:05.448Z,41.15
2023-01-11T02:15:32.815Z,41.11
2023-01-11T02:17:59.354Z,41.50
2023-01-11T02:20:37.757Z,41.37
2023-01-11T02:23:41.168Z,40.92
2023-01-11T02:27:15.579Z,40.90
2023-01-11T02:29:54.343Z,41.11
2023-01-11T02:32:39.824Z,40.88
2023-01-11T02:35:34.955Z,40.98
2023-01-11T02:38:14.381Z,40.75
2023-01-11T02:40:52.565Z,41.18
2023-01-11T02:43:45.369Z,41.15
2023-01-11T02:46:18.164Z,40.88
2023-01-11T02:48:59.907Z,40.96
2023-01-11T02:51:34.102Z,41.20
2023-01-11T02:54:09.024Z,41.05
2023-01-11T02:56:39.296Z,41.01
2023-01-11T02:59:09.368Z,40.86
2023-01-11T03:01:51.584Z,40.72
2023-01-11T03:04:33.671Z,40.62
2023-01-11T03:07:46.093Z,40.62
2023-01-11T03:10:54.773Z,40.90
2023-01-11T03:13:24.176Z,40.84
2023-01-11T03:16:08.748Z,40.82
2023-01-11T03:18:44.337Z,40.82
2023-01-11T03:21:33.423Z,40.78
2023-01-11T03:24:05.732Z,40.96
2023-01-11T03:26:54.633Z,40.51
2023-01-11T03:29:33.422Z,40.85
2023-01-11T03:32:18.517Z,40.65
2023-01-11T03:35:10.903Z,40.83
2023-01-11T03:37:41.467Z,40.70
2023-01-11T03:40:18.206Z,40.75
2023-01-11T03:43:06.356Z,40.68
2023-01-11T03:45:36.061Z,40.91
2023-01-11T03:48:05.130Z,41.14
2023-01-11T03:50:33.494Z,40.78
2023-01-11T03:53:01.921Z,41.13
2023-01-11T03:55:30.437Z,41.25
2023-01-11T03:57:59.932Z,41.22
2023-01-11T04:00:27.995Z,41.32
2023-01-11T04:02:54.540Z,41.40
2023-01-11T04:05:22.097Z,41.48
2023-01-11T04:07:48.683Z,41.31
2023-01-11T04:10:15.528Z,41.30
2023-01-11T04:12:42.717Z,41.35
2023-01-11T04:15:10.157Z,41.32
2023-01-11T04:17:36.724Z,41.49
2023-01-11T04:20:03.382Z,41.47
2023-01-11T04:22:30.128Z,41.42
2023-01-11T04:24:56.740Z,41.43
2023-01-11T04:27:23.999Z,41.26
2023-01-11T04:29:50.551Z,41.56
2023-01-11T04:32:17.118Z,41.49
2023-01-11T04:34:44.446Z,41.33
2023-01-11T04:37:12.010Z,41.35
2023-01-11T04:39:38.962Z,41.52
2023-01-11T04:42:34.678Z,41.66
2023-01-11T04:45:01.448Z,41.42
2023-01-11T04:47:28.156Z,41.48
2023-01-11T04:49:54.749Z,41.50
2023-01-11T04:52:21.630Z,41.62
2023-01-11T04:54:48.787Z,41.74
2023-01-11T04:57:16.920Z,41.54
2023-01-11T04:59:43.529Z,41.74
2023-01-11T05:02:13.675Z,41.50
2023-01-11T05:04:41.314Z,41.73
2023-01-11T05:07:08.768Z,41.64
2023-01-11T05:09:35.552Z,41.47
2023-01-11T05:12:02.886Z,41.44
2023-01-11T05:14:29.503Z,41.49
2023-01-11T05:16:56.028Z,41.61
2023-01-11T05:19:22.879Z,41.60
2023-01-11T05:21:50.407Z,41.72
2023-01-11T05:24:17.106Z,41.70
2023-01-11T05:26:45.445Z,41.72
2023-01-11T05:29:16.147Z,41.48
2023-01-11T05:31:43.058Z,41.66
2023-01-11T05:34:12.346Z,41.59
2023-01-11T05:36:40.149Z,41.57
2023-01-11T05:39:06.787Z,41.45
2023-01-11T05:41:34.008Z,41.37
2023-01-11T05:44:19.244Z,41.43
2023-01-11T05:46:45.963Z,41.39
2023-01-11T05:49:13.714Z,41.28
2023-01-11T05:51:41.516Z,41.46
2023-01-11T05:54:12.312Z,41.29
2023-01-11T05:56:39.477Z,41.52
2023-01-11T05:59:06.129Z,41.68
2023-01-11T06:01:33.051Z,41.01
2023-01-11T06:03:59.626Z,41.50
2023-01-11T06:06:26.383Z,41.19
2023-01-11T06:08:52.973Z,41.55
2023-01-11T06:11:19.605Z,41.55
2023-01-11T06:13:46.591Z,41.73
2023-01-11T06:16:15.865Z,42.03
2023-01-11T06:18:45.534Z,41.79
2023-01-11T06:21:13.245Z,41.98
2023-01-11T06:23:42.576Z,42.31
2023-01-11T06:26:11.609Z,42.39
2023-01-11T06:28:38.441Z,42.08
2023-01-11T06:31:05.942Z,42.04
2023-01-11T06:33:32.816Z,41.96
2023-01-11T06:36:03.677Z,42.05
2023-01-11T06:38:30.237Z,41.97
2023-01-11T06:41:00.382Z,42.14
2023-01-11T06:43:28.922Z,42.07
2023-01-11T06:45:55.749Z,42.15
2023-01-11T06:48:23.189Z,42.26
2023-01-11T06:50:51.044Z,42.47
2023-01-11T06:53:18.014Z,42.25
2023-01-11T06:55:45.251Z,42.37
2023-01-11T06:58:11.945Z,42.46
2023-01-11T07:00:38.683Z,42.73
2023-01-11T07:03:06.908Z,42.70
2023-01-11T07:05:34.704Z,42.65
2023-01-11T07:08:01.478Z,43.05
2023-01-11T07:10:28.165Z,42.92
2023-01-11T07:12:55.064Z,42.93
2023-01-11T07:15:23.310Z,43.02
2023-01-11T07:17:56.933Z,43.13
2023-01-11T07:20:24.458Z,43.26
2023-01-11T07:22:51.480Z,42.84
2023-01-11T07:25:18.635Z,42.99
2023-01-11T07:27:45.515Z,43.15
2023-01-11T07:30:12.465Z,42.67
2023-01-11T07:32:39.312Z,42.43
2023-01-11T07:35:07.065Z,42.17
2023-01-11T07:37:34.161Z,42.20
2023-01-11T07:40:01.109Z,42.14
2023-01-11T07:42:46.071Z,42.02
2023-01-11T07:45:12.784Z,41.60
2023-01-11T07:47:39.365Z,41.78
2023-01-11T07:50:06.769Z,41.42
2023-01-11T07:52:33.366Z,41.38
2023-01-11T07:55:02.630Z,41.23
2023-01-11T07:57:30.348Z,41.85
2023-01-11T07:59:57.001Z,41.58
2023-01-11T08:02:24.059Z,41.73
2023-01-11T08:04:50.896Z,41.55
2023-01-11T08:07:17.444Z,41.66
2023-01-11T08:09:44.989Z,41.33
2023-01-11T08:12:37.890Z,40.98
2023-01-11T08:15:05.065Z,41.35
2023-01-11T08:17:33.843Z,40.72
2023-01-11T08:20:00.483Z,40.87
2023-01-11T08:22:27.036Z,40.77
2023-01-11T08:24:53.673Z,40.15
2023-01-11T08:27:20.274Z,40.49
2023-01-11T08:29:46.923Z,40.15
2023-01-11T08:32:13.451Z,40.52
2023-01-11T08:34:41.208Z,40.27
2023-01-11T08:37:07.768Z,40.12
2023-01-11T08:39:34.601Z,40.05
2023-01-11T08:42:03.131Z,40.25
2023-01-11T08:44:34.039Z,39.76
2023-01-11T08:47:02.543Z,40.08
2023-01-11T08:49:30.409Z,40.23
2023-01-11T08:51:57.126Z,40.68
2023-01-11T08:54:24.776Z,40.90
2023-01-11T08:56:51.390Z,40.75
2023-01-11T08:59:19.949Z,40.29
2023-01-11T09:01:47.203Z,40.30
2023-01-11T09:04:24.157Z,39.53
2023-01-11T09:06:53.037Z,39.61
2023-01-11T09:09:19.912Z,39.31
2023-01-11T09:11:56.472Z,39.60
2023-01-11T09:14:24.801Z,39.20
2023-01-11T09:16:52.057Z,39.33
2023-01-11T09:19:20.044Z,39.77
2023-01-11T09:21:46.815Z,40.26
2023-01-11T09:24:13.725Z,39.49
2023-01-11T09:26:43.256Z,39.75
2023-01-11T09:29:11.082Z,39.99
2023-01-11T09:31:37.813Z,39.22
2023-01-11T09:34:05.405Z,38.41
2023-01-11T09:36:33.510Z,38.75
2023-01-11T09:39:02.130Z,38.34
2023-01-11T09:41:40.979Z,38.47
2023-01-11T09:44:16.162Z,38.22
2023-01-11T09:46:50.077Z,38.13
2023-01-11T09:49:20.205Z,37.95
2023-01-11T09:51:47.653Z,37.95
2023-01-11T09:54:19.147Z,37.86
2023-01-11T09:56:53.844Z,37.73
2023-01-11T09:59:34.646Z,37.80
2023-01-11T10:02:19.518Z,37.78
2023-01-11T10:05:10.045Z,37.83
2023-01-11T10:18:31.574Z,37.30
2023-01-11T10:19:41.291Z,37.29
2023-01-11T10:22:15.665Z,37.10
2023-01-11T10:24:52.875Z,37.16
2023-01-11T10:27:40.348Z,37.12
2023-01-11T10:30:53.691Z,37.08
2023-01-11T10:33:52.467Z,37.29
2023-01-11T10:36:32.861Z,37.17
2023-01-11T10:39:16.043Z,37.17
2023-01-11T10:41:57.091Z,37.24
2023-01-11T10:44:57.689Z,37.03
2023-01-11T10:47:29.228Z,36.83
2023-01-11T10:50:05.058Z,36.57
2023-01-11T10:52:41.417Z,36.57
2023-01-11T10:55:16.848Z,36.99
2023-01-11T10:58:01.732Z,36.72
2023-01-11T11:00:36.079Z,37.15
2023-01-11T11:03:26.264Z,36.96
2023-01-11T11:06:00.416Z,36.65
2023-01-11T11:08:42.582Z,36.56
2023-01-11T11:11:15.683Z,36.51
2023-01-11T11:14:10.373Z,36.18
2023-01-11T11:16:49.251Z,36.46
2023-01-11T11:19:17.604Z,36.29
2023-01-11T11:21:44.367Z,36.39
2023-01-11T11:24:23.241Z,36.60
2023-01-11T11:26:57.267Z,36.27
2023-01-11T11:29:30.398Z,36.41
2023-01-11T11:31:59.109Z,36.31
2023-01-11T11:34:27.387Z,36.46
2023-01-11T11:36:55.268Z,36.19
2023-01-11T11:39:25.678Z,36.09
2023-01-11T11:41:58.343Z,36.28
2023-01-11T11:44:28.567Z,36.22
2023-01-11T11:46:58.801Z,36.21
2023-01-11T11:49:25.604Z,36.12
2023-01-11T11:51:52.648Z,35.74
2023-01-11T11:54:34.364Z,35.99
2023-01-11T11:57:20.942Z,35.90
2023-01-11T11:59:49.419Z,36.00
2023-01-11T12:02:45.162Z,36.07
2023-01-11T12:05:12.246Z,35.63
2023-01-11T12:07:54.930Z,35.78
2023-01-11T12:10:27.269Z,35.88
2023-01-11T12:13:02.060Z,35.71
2023-01-11T12:15:31.044Z,35.91
2023-01-11T12:18:16.699Z,35.47
2023-01-11T12:20:44.697Z,35.46
2023-01-11T12:23:24.971Z,35.18
2023-01-11T12:26:10.322Z,35.43
2023-01-11T12:28:52.022Z,35.55
2023-01-11T12:31:24.776Z,35.16
2023-01-11T12:34:13.579Z,35.35
2023-01-11T12:36:51.255Z,35.56
2023-01-11T12:39:30.679Z,35.52
2023-01-11T12:42:35.302Z,35.07
2023-01-11T12:45:11.043Z,34.95
2023-01-11T12:47:59.369Z,34.92
2023-01-11T12:51:03.335Z,35.44
2023-01-11T12:53:50.947Z,35.41
2023-01-11T12:56:45.520Z,34.98
2023-01-11T12:59:24.681Z,34.94
2023-01-11T13:01:57.238Z,34.79
2023-01-11T13:04:41.084Z,34.93
2023-01-11T13:07:25.963Z,35.12
2023-01-11T13:10:17.024Z,34.98
2023-01-11T13:13:37.345Z,35.42
2023-01-11T13:16:15.254Z,35.36
2023-01-11T13:18:48.726Z,35.23
2023-01-11T13:21:35.137Z,35.43
2023-01-11T13:24:14.583Z,35.01
2023-01-11T13:26:44.847Z,35.04
2023-01-11T13:29:16.734Z,35.09
2023-01-11T13:31:44.747Z,35.51
2023-01-11T13:34:22.282Z,35.33
2023-01-11T13:36:54.528Z,35.07
2023-01-11T13:39:28.471Z,35.33
2023-01-11T13:41:58.273Z,35.25
2023-01-11T13:44:28.177Z,34.97
2023-01-11T13:47:39.886Z,34.77
2023-01-11T13:50:20.836Z,35.33
2023-01-11T13:53:10.022Z,34.86
2023-01-11T13:55:39.674Z,34.82
2023-01-11T13:58:14.572Z,35.14
2023-01-11T14:00:45.922Z,35.18
2023-01-11T14:03:18.618Z,35.16
2023-01-11T14:06:02.768Z,34.98
2023-01-11T14:08:45.056Z,34.63
2023-01-11T14:11:23.307Z,35.07
2023-01-11T14:14:15.700Z,35.11
2023-01-11T14:16:54.439Z,34.98
2023-01-11T14:19:34.724Z,34.72
2023-01-11T14:22:19.744Z,34.38
2023-01-11T14:25:15.338Z,34.89
2023-01-11T14:27:48.359Z,34.60
2023-01-11T14:30:40.085Z,34.51
2023-01-11T14:33:06.608Z,34.87
2023-01-11T14:35:57.874Z,34.75
2023-01-11T14:38:27.408Z,34.37
2023-01-11T14:41:22.746Z,34.47
2023-01-11T14:43:55.450Z,34.48
2023-01-11T14:46:44.153Z,34.40
2023-01-11T14:49:42.956Z,34.26
2023-01-11T14:52:14.817Z,33.56
2023-01-11T14:54:45.148Z,33.61
2023-01-11T14:57:38.117Z,34.10
2023-01-11T15:00:24.696Z,34.13
2023-01-11T15:03:12.160Z,34.59
2023-01-11T15:05:46.630Z,34.48
2023-01-11T15:08:13.194Z,34.64
2023-01-11T15:10:50.606Z,34.93
2023-01-11T15:13:27.084Z,34.84
2023-01-11T15:16:25.568Z,35.10
2023-01-11T15:18:53.407Z,35.25
2023-01-11T15:21:23.283Z,35.34
2023-01-11T15:23:55.618Z,35.32
2023-01-11T15:26:24.506Z,35.02
2023-01-11T15:28:57.236Z,35.56
2023-01-11T15:31:36.616Z,34.98
2023-01-11T15:34:17.356Z,34.68
2023-01-11T15:37:16.600Z,35.14
2023-01-11T15:39:54.644Z,35.08
2023-01-11T15:42:45.627Z,35.06
2023-01-11T15:45:27.548Z,34.34
2023-01-11T15:48:13.112Z,34.46
2023-01-11T15:50:54.819Z,34.56
2023-01-11T15:53:42.943Z,34.92
2023-01-11T15:56:42.871Z,34.46
2023-01-11T15:59:23.786Z,34.20
2023-01-11T16:02:02.418Z,34.69
2023-01-11T16:04:36.687Z,34.20
2023-01-11T16:07:40.790Z,33.91
2023-01-11T16:10:31.739Z,34.35
2023-01-11T16:13:06.311Z,34.01
2023-01-11T16:16:14.928Z,33.91
2023-01-11T16:18:48.217Z,33.99
2023-01-11T16:21:21.298Z,34.50
2023-01-11T16:23:48.963Z,34.36
2023-01-11T16:26:20.147Z,34.64
2023-01-11T16:28:52.840Z,34.23
2023-01-11T16:31:20.377Z,34.56
2023-01-11T16:33:49.558Z,34.23
2023-01-11T16:36:21.164Z,34.81
2023-01-11T16:39:01.581Z,34.27
2023-01-11T16:41:39.787Z,34.14
2023-01-11T16:44:09.210Z,34.45
2023-01-11T16:47:08.966Z,34.86
2023-01-11T16:49:35.829Z,34.44
2023-01-11T16:52:28.105Z,34.42
2023-01-11T16:54:56.204Z,35.19
2023-01-11T16:57:28.340Z,33.97
2023-01-11T17:00:07.055Z,33.81
2023-01-11T17:02:39.389Z,33.88
2023-01-11T17:05:21.002Z,34.70
2023-01-11T17:07:47.972Z,34.97
2023-01-11T17:10:16.050Z,34.69
2023-01-11T17:12:49.368Z,34.62
2023-01-11T17:15:46.598Z,34.86
2023-01-11T17:18:13.445Z,34.53
2023-01-11T17:20:40.861Z,34.94
2023-01-11T17:23:07.612Z,34.50
2023-01-11T17:25:44.259Z,34.39
2023-01-11T17:28:19.241Z,34.92
2023-01-11T17:30:48.136Z,34.52
2023-01-11T17:33:33.081Z,35.14
2023-01-11T17:36:00.199Z,34.81
2023-01-11T17:38:27.663Z,34.95
2023-01-11T17:40:58.672Z,35.17
2023-01-11T17:43:48.039Z,34.96
2023-01-11T17:46:20.551Z,35.17
2023-01-11T17:48:56.496Z,35.12
2023-01-11T17:51:23.814Z,35.17
2023-01-11T17:53:51.606Z,35.33
2023-01-11T17:56:54.488Z,35.70
2023-01-11T17:59:24.094Z,35.85
2023-01-11T18:01:54.094Z,35.78
2023-01-11T18:04:22.835Z,35.68
2023-01-11T18:06:53.977Z,35.91
2023-01-11T18:09:29.374Z,36.21
2023-01-11T18:12:12.106Z,36.00
2023-01-11T18:14:41.307Z,35.95
2023-01-11T18:17:35.115Z,36.13
2023-01-11T18:20:21.746Z,36.35
2023-01-11T18:22:54.295Z,36.42
2023-01-11T18:25:26.199Z,36.39
2023-01-11T18:28:11.898Z,36.23
2023-01-11T18:30:45.808Z,36.59
2023-01-11T18:33:20.008Z,36.19
2023-01-11T18:35:50.021Z,36.16
2023-01-11T18:38:23.634Z,36.16
2023-01-11T18:40:52.008Z,36.23
2023-01-11T18:43:26.375Z,36.32
2023-01-11T18:45:54.913Z,36.41
2023-01-11T18:48:21.967Z,36.48
2023-01-11T18:50:49.366Z,36.61
2023-01-11T18:53:16.570Z,36.42
2023-01-11T18:55:44.716Z,36.36
2023-01-11T18:58:11.783Z,36.41
2023-01-11T19:00:38.528Z,36.68
2023-01-11T19:03:05.529Z,36.73
2023-01-11T19:05:32.271Z,36.88
2023-01-11T19:07:59.301Z,36.75
2023-01-11T19:10:26.731Z,36.38
2023-01-11T19:12:53.393Z,36.38
2023-01-11T19:15:20.058Z,36.53
2023-01-11T19:17:46.705Z,36.52
2023-01-11T19:20:14.131Z,36.56
2023-01-11T19:22:40.939Z,36.54
2023-01-11T19:25:09.493Z,36.85
2023-01-11T19:27:37.225Z,36.94
2023-01-11T19:30:05.523Z,36.88
2023-01-11T19:32:32.133Z,37.15
2023-01-11T19:34:59.598Z,36.98
2023-01-11T19:37:27.421Z,36.83
2023-01-11T19:39:54.114Z,36.59
2023-01-11T19:42:23.746Z,36.84
2023-01-11T19:44:51.517Z,36.81
2023-01-11T19:47:18.412Z,37.18
2023-01-11T19:49:45.083Z,36.93
2023-01-11T19:52:14.319Z,36.92
2023-01-11T19:54:45.045Z,37.12
2023-01-11T19:57:14.688Z,36.74
2023-01-11T19:59:41.992Z,36.81
2023-01-11T20:02:11.141Z,36.90
2023-01-11T20:04:37.673Z,37.13
2023-01-11T20:07:04.895Z,37.13
2023-01-11T20:09:31.964Z,37.16
2023-01-11T20:11:58.909Z,37.25
2023-01-11T20:14:25.788Z,37.02
2023-01-11T20:16:52.449Z,37.05
2023-01-11T20:19:19.006Z,37.22
2023-01-11T20:21:45.644Z,37.08
2023-01-11T20:24:13.492Z,37.19
2023-01-11T20:26:40.936Z,36.67
2023-01-11T20:29:07.796Z,36.78
2023-01-11T20:31:35.532Z,37.05
2023-01-11T20:34:09.919Z,36.78
2023-01-11T20:36:36.623Z,36.95
2023-01-11T20:39:04.301Z,36.99
2023-01-11T20:41:49.936Z,36.70
2023-01-11T20:44:19.234Z,36.97
2023-01-11T20:46:48.156Z,36.56
2023-01-11T20:49:15.955Z,36.70
2023-01-11T20:51:43.638Z,37.14
2023-01-11T20:54:10.962Z,36.92
2023-01-11T20:56:38.586Z,36.74
2023-01-11T20:59:06.928Z,36.55
2023-01-11T21:01:33.554Z,36.80
2023-01-11T21:04:03.465Z,36.79
2023-01-11T21:06:31.321Z,36.39
2023-01-11T21:08:59.861Z,36.73
2023-01-11T21:11:27.633Z,36.26
2023-01-11T21:13:55.753Z,36.33
2023-01-11T21:16:24.507Z,35.84
2023-01-11T21:19:05.211Z,36.11
2023-01-11T21:21:33.553Z,36.14
2023-01-11T21:24:02.361Z,36.43
2023-01-11T21:26:30.637Z,36.33
2023-01-11T21:28:59.563Z,36.29
2023-01-11T21:31:32.112Z,36.09
2023-01-11T21:33:59.835Z,36.37
2023-01-11T21:36:27.599Z,36.53
2023-01-11T21:38:55.471Z,36.44
2023-01-11T21:41:45.699Z,36.65
2023-01-11T21:44:13.154Z,36.45
2023-01-11T21:46:40.162Z,36.61
2023-01-11T21:49:07.206Z,36.15
2023-01-11T21:51:34.578Z,36.48
2023-01-11T21:54:07.120Z,36.34
2023-01-11T21:56:33.897Z,36.42
2023-01-11T21:59:00.565Z,36.54
2023-01-11T22:01:27.705Z,36.17
2023-01-11T22:03:54.260Z,36.46
2023-01-11T22:06:20.945Z,36.36
2023-01-11T22:08:47.761Z,36.33
2023-01-11T22:11:15.331Z,36.33
2023-01-11T22:13:42.767Z,36.21
2023-01-11T22:16:12.832Z,36.14
2023-01-11T22:18:41.178Z,36.58
2023-01-11T22:21:17.393Z,36.56
2023-01-11T22:23:45.275Z,36.49
2023-01-11T22:26:13.936Z,36.26
2023-01-11T22:28:59.987Z,36.31
2023-01-11T22:31:27.890Z,36.66
2023-01-11T22:33:55.315Z,36.61
2023-01-11T22:36:23.886Z,36.33
2023-01-11T22:38:51.295Z,36.30
2023-01-11T22:41:18.329Z,36.67
2023-01-11T22:43:45.706Z,36.29
2023-01-11T22:46:15.134Z,36.19
2023-01-11T22:48:41.779Z,36.56
2023-01-11T22:51:09.597Z,36.50
2023-01-11T22:53:40.196Z,36.57
2023-01-11T22:56:08.505Z,36.58
2023-01-11T22:58:36.056Z,36.37
2023-01-11T23:01:19.121Z,36.49
2023-01-11T23:03:45.977Z,36.51
2023-01-11T23:06:15.966Z,36.61
2023-01-11T23:08:43.287Z,36.36
2023-01-11T23:11:12.481Z,36.53
2023-01-11T23:14:01.863Z,36.47
2023-01-11T23:16:28.664Z,36.37
2023-01-11T23:18:55.967Z,36.33
2023-01-11T23:21:22.555Z,36.38
2023-01-11T23:23:49.761Z,36.66
2023-01-11T23:26:20.288Z,36.16
2023-01-11T23:28:48.384Z,36.63
2023-01-11T23:31:17.723Z,36.25
2023-01-11T23:33:45.626Z,36.24
2023-01-11T23:36:12.329Z,36.36
2023-01-11T23:38:39.282Z,36.15
2023-01-11T23:41:29.575Z,36.28
2023-01-11T23:43:57.348Z,36.41
2023-01-11T23:46:42.989Z,36.55
2023-01-11T23:49:10.484Z,36.40
2023-01-11T23:51:37.997Z,36.25
2023-01-11T23:54:06.611Z,36.57
2023-01-11T23:56:34.110Z,36.19
2023-01-11T23:59:00.774Z,36.37
